Langruth, Canada
Current Conditions -  °F | °C
As of 3:38 PM on Sunday 23 Nov 2014 (Local Time) from CYBR Reporting Station
Light Snow Light Snow  
Wind Chill: -19°   Ceiling: 3200
Heat Index: -10°   Visibility: 4mi
Dew Point: -13°   Wind: 17mph
Humidity: 79%   Direction: 340°NNW
Pressure: 29.63"   Gusts: NA
Location:  50.38°N, 98.67°W
Report Text: CYBR 232138Z 34015KT 4SM -SN DRSN OVC032 M10/M13 A2963 RMK SC8 VIS S-SW 11/2 SLP063
Loading
Personal Weather Stations






























Interactive Weather Map New forecast layout! Learn more

10-Day Weather Forecast

Advertisements
Track Severe Weather on mobile